sensor_id;sensor_type;location;lat;lon;timestamp;P1;durP1;ratioP1;P2;durP2;ratioP2
10303;SDS011;5197;48.152;8.590;2023-04-24T00:01:33;1.40;;;0.87;;
10303;SDS011;5197;48.152;8.590;2023-04-24T00:04:00;0.43;;;0.43;;
10303;SDS011;5197;48.152;8.590;2023-04-24T00:06:28;0.50;;;0.50;;
10303;SDS011;5197;48.152;8.590;2023-04-24T00:08:59;1.07;;;0.70;;
10303;SDS011;5197;48.152;8.590;2023-04-24T00:11:27;0.60;;;0.60;;
10303;SDS011;5197;48.152;8.590;2023-04-24T00:13:54;0.67;;;0.67;;
10303;SDS011;5197;48.152;8.590;2023-04-24T00:16:21;0.97;;;0.43;;
10303;SDS011;5197;48.152;8.590;2023-04-24T00:18:48;0.60;;;0.60;;
10303;SDS011;5197;48.152;8.590;2023-04-24T00:21:15;1.60;;;0.50;;
10303;SDS011;5197;48.152;8.590;2023-04-24T00:23:45;0.60;;;0.60;;
10303;SDS011;5197;48.152;8.590;2023-04-24T00:26:12;0.40;;;0.40;;
10303;SDS011;5197;48.152;8.590;2023-04-24T00:28:39;1.80;;;0.30;;
10303;SDS011;5197;48.152;8.590;2023-04-24T00:31:06;0.70;;;0.70;;
10303;SDS011;5197;48.152;8.590;2023-04-24T00:33:33;1.33;;;0.50;;
10303;SDS011;5197;48.152;8.590;2023-04-24T00:36:00;1.03;;;0.70;;
10303;SDS011;5197;48.152;8.590;2023-04-24T00:38:27;0.40;;;0.40;;
10303;SDS011;5197;48.152;8.590;2023-04-24T00:40:54;0.37;;;0.37;;
10303;SDS011;5197;48.152;8.590;2023-04-24T00:43:21;0.50;;;0.50;;
10303;SDS011;5197;48.152;8.590;2023-04-24T00:45:48;0.53;;;0.40;;
10303;SDS011;5197;48.152;8.590;2023-04-24T00:48:15;1.70;;;0.60;;
10303;SDS011;5197;48.152;8.590;2023-04-24T00:50:43;1.10;;;0.43;;
10303;SDS011;5197;48.152;8.590;2023-04-24T00:53:10;1.93;;;0.33;;
10303;SDS011;5197;48.152;8.590;2023-04-24T00:55:37;0.40;;;0.40;;
10303;SDS011;5197;48.152;8.590;2023-04-24T00:58:04;0.40;;;0.40;;
10303;SDS011;5197;48.152;8.590;2023-04-24T01:00:31;0.20;;;0.20;;
10303;SDS011;5197;48.152;8.590;2023-04-24T01:02:59;0.60;;;0.53;;
10303;SDS011;5197;48.152;8.590;2023-04-24T01:05:30;0.30;;;0.30;;
10303;SDS011;5197;48.152;8.590;2023-04-24T01:07:58;0.97;;;0.50;;
10303;SDS011;5197;48.152;8.590;2023-04-24T01:10:26;0.77;;;0.70;;
10303;SDS011;5197;48.152;8.590;2023-04-24T01:12:55;0.70;;;0.63;;
10303;SDS011;5197;48.152;8.590;2023-04-24T01:15:22;1.47;;;1.00;;
10303;SDS011;5197;48.152;8.590;2023-04-24T01:17:49;1.23;;;1.13;;
10303;SDS011;5197;48.152;8.590;2023-04-24T01:20:16;1.30;;;1.30;;
10303;SDS011;5197;48.152;8.590;2023-04-24T01:22:43;2.10;;;1.53;;
10303;SDS011;5197;48.152;8.590;2023-04-24T01:25:10;1.30;;;1.20;;
10303;SDS011;5197;48.152;8.590;2023-04-24T01:27:37;1.20;;;1.10;;
10303;SDS011;5197;48.152;8.590;2023-04-24T01:30:04;2.60;;;1.13;;
10303;SDS011;5197;48.152;8.590;2023-04-24T01:32:32;1.83;;;1.20;;
10303;SDS011;5197;48.152;8.590;2023-04-24T01:35:01;2.03;;;1.00;;
10303;SDS011;5197;48.152;8.590;2023-04-24T01:37:29;2.40;;;1.00;;
10303;SDS011;5197;48.152;8.590;2023-04-24T01:39:58;2.00;;;0.90;;
10303;SDS011;5197;48.152;8.590;2023-04-24T01:42:25;1.40;;;0.70;;
10303;SDS011;5197;48.152;8.590;2023-04-24T01:44:52;0.77;;;0.50;;
10303;SDS011;5197;48.152;8.590;2023-04-24T01:47:20;1.23;;;0.80;;
10303;SDS011;5197;48.152;8.590;2023-04-24T01:49:47;4.83;;;1.17;;
10303;SDS011;5197;48.152;8.590;2023-04-24T01:52:16;1.73;;;0.93;;
10303;SDS011;5197;48.152;8.590;2023-04-24T01:54:44;1.13;;;0.90;;
10303;SDS011;5197;48.152;8.590;2023-04-24T01:57:11;1.33;;;0.70;;
10303;SDS011;5197;48.152;8.590;2023-04-24T01:59:38;0.87;;;0.70;;
10303;SDS011;5197;48.152;8.590;2023-04-24T02:02:05;0.67;;;0.60;;
10303;SDS011;5197;48.152;8.590;2023-04-24T02:04:32;1.10;;;0.77;;
10303;SDS011;5197;48.152;8.590;2023-04-24T02:06:59;0.87;;;0.60;;
10303;SDS011;5197;48.152;8.590;2023-04-24T02:09:26;2.20;;;0.70;;
10303;SDS011;5197;48.152;8.590;2023-04-24T02:11:53;1.13;;;0.60;;
10303;SDS011;5197;48.152;8.590;2023-04-24T02:14:19;1.53;;;0.70;;
10303;SDS011;5197;48.152;8.590;2023-04-24T02:16:46;0.70;;;0.53;;
10303;SDS011;5197;48.152;8.590;2023-04-24T02:19:13;1.43;;;0.90;;
10303;SDS011;5197;48.152;8.590;2023-04-24T02:21:40;0.87;;;0.80;;
10303;SDS011;5197;48.152;8.590;2023-04-24T02:24:06;1.33;;;0.70;;
10303;SDS011;5197;48.152;8.590;2023-04-24T02:26:33;1.50;;;0.93;;
10303;SDS011;5197;48.152;8.590;2023-04-24T02:29:00;2.00;;;1.20;;
10303;SDS011;5197;48.152;8.590;2023-04-24T02:31:27;1.23;;;0.73;;
10303;SDS011;5197;48.152;8.590;2023-04-24T02:33:54;1.57;;;0.83;;
10303;SDS011;5197;48.152;8.590;2023-04-24T02:36:21;1.47;;;1.10;;
10303;SDS011;5197;48.152;8.590;2023-04-24T02:38:48;2.93;;;0.67;;
10303;SDS011;5197;48.152;8.590;2023-04-24T02:41:14;1.03;;;1.03;;
10303;SDS011;5197;48.152;8.590;2023-04-24T02:43:41;2.30;;;1.00;;
10303;SDS011;5197;48.152;8.590;2023-04-24T02:46:08;1.10;;;1.10;;
10303;SDS011;5197;48.152;8.590;2023-04-24T02:48:35;1.10;;;0.97;;
10303;SDS011;5197;48.152;8.590;2023-04-24T02:51:02;1.03;;;1.00;;
10303;SDS011;5197;48.152;8.590;2023-04-24T02:53:30;1.07;;;0.93;;
10303;SDS011;5197;48.152;8.590;2023-04-24T02:55:56;0.80;;;0.80;;
10303;SDS011;5197;48.152;8.590;2023-04-24T02:58:23;0.90;;;0.90;;
10303;SDS011;5197;48.152;8.590;2023-04-24T03:00:54;1.00;;;1.00;;
10303;SDS011;5197;48.152;8.590;2023-04-24T03:03:22;1.43;;;0.90;;
10303;SDS011;5197;48.152;8.590;2023-04-24T03:05:49;1.10;;;0.80;;
10303;SDS011;5197;48.152;8.590;2023-04-24T03:08:16;0.83;;;0.83;;
10303;SDS011;5197;48.152;8.590;2023-04-24T03:10:43;2.73;;;1.07;;
10303;SDS011;5197;48.152;8.590;2023-04-24T03:13:13;2.80;;;1.00;;
10303;SDS011;5197;48.152;8.590;2023-04-24T03:15:40;0.93;;;0.87;;
10303;SDS011;5197;48.152;8.590;2023-04-24T03:18:07;1.20;;;0.90;;
10303;SDS011;5197;48.152;8.590;2023-04-24T03:20:34;1.13;;;0.93;;
10303;SDS011;5197;48.152;8.590;2023-04-24T03:23:03;0.83;;;0.80;;
10303;SDS011;5197;48.152;8.590;2023-04-24T03:25:30;2.87;;;1.20;;
10303;SDS011;5197;48.152;8.590;2023-04-24T03:27:57;1.43;;;1.10;;
10303;SDS011;5197;48.152;8.590;2023-04-24T03:30:23;0.97;;;0.90;;
10303;SDS011;5197;48.152;8.590;2023-04-24T03:32:50;1.50;;;0.93;;
10303;SDS011;5197;48.152;8.590;2023-04-24T03:35:17;1.80;;;1.07;;
10303;SDS011;5197;48.152;8.590;2023-04-24T03:37:44;1.40;;;1.13;;
10303;SDS011;5197;48.152;8.590;2023-04-24T03:40:11;1.97;;;0.93;;
10303;SDS011;5197;48.152;8.590;2023-04-24T03:42:37;1.07;;;0.70;;
10303;SDS011;5197;48.152;8.590;2023-04-24T03:45:05;2.57;;;1.20;;
10303;SDS011;5197;48.152;8.590;2023-04-24T03:47:32;1.13;;;0.77;;
10303;SDS011;5197;48.152;8.590;2023-04-24T03:49:59;1.43;;;0.87;;
10303;SDS011;5197;48.152;8.590;2023-04-24T03:52:26;0.70;;;0.70;;
10303;SDS011;5197;48.152;8.590;2023-04-24T03:54:53;1.37;;;0.70;;
10303;SDS011;5197;48.152;8.590;2023-04-24T03:57:19;1.33;;;1.00;;
10303;SDS011;5197;48.152;8.590;2023-04-24T03:59:46;0.80;;;0.80;;
10303;SDS011;5197;48.152;8.590;2023-04-24T04:02:13;1.63;;;0.93;;
10303;SDS011;5197;48.152;8.590;2023-04-24T04:04:40;1.03;;;0.70;;
10303;SDS011;5197;48.152;8.590;2023-04-24T04:07:07;2.33;;;0.87;;
10303;SDS011;5197;48.152;8.590;2023-04-24T04:09:34;1.30;;;0.80;;
10303;SDS011;5197;48.152;8.590;2023-04-24T04:12:01;0.93;;;0.83;;
10303;SDS011;5197;48.152;8.590;2023-04-24T04:14:28;1.37;;;1.13;;
10303;SDS011;5197;48.152;8.590;2023-04-24T04:16:55;2.63;;;1.23;;
10303;SDS011;5197;48.152;8.590;2023-04-24T04:19:22;2.23;;;0.90;;
10303;SDS011;5197;48.152;8.590;2023-04-24T04:21:49;1.43;;;1.30;;
10303;SDS011;5197;48.152;8.590;2023-04-24T04:24:19;1.00;;;0.93;;
10303;SDS011;5197;48.152;8.590;2023-04-24T04:26:50;2.83;;;1.10;;
10303;SDS011;5197;48.152;8.590;2023-04-24T04:29:18;1.53;;;1.10;;
10303;SDS011;5197;48.152;8.590;2023-04-24T04:31:45;1.33;;;0.90;;
10303;SDS011;5197;48.152;8.590;2023-04-24T04:34:11;0.23;;;0.23;;
10303;SDS011;5197;48.152;8.590;2023-04-24T04:36:40;1.17;;;0.90;;
10303;SDS011;5197;48.152;8.590;2023-04-24T04:39:07;0.73;;;0.73;;
10303;SDS011;5197;48.152;8.590;2023-04-24T04:41:34;1.10;;;1.10;;
10303;SDS011;5197;48.152;8.590;2023-04-24T04:44:01;0.90;;;0.90;;
10303;SDS011;5197;48.152;8.590;2023-04-24T04:46:30;1.37;;;1.27;;
10303;SDS011;5197;48.152;8.590;2023-04-24T04:49:00;1.37;;;1.27;;
10303;SDS011;5197;48.152;8.590;2023-04-24T04:51:28;1.30;;;1.30;;
10303;SDS011;5197;48.152;8.590;2023-04-24T04:53:55;0.60;;;0.60;;
10303;SDS011;5197;48.152;8.590;2023-04-24T04:56:22;1.30;;;0.77;;
10303;SDS011;5197;48.152;8.590;2023-04-24T04:58:49;3.27;;;0.90;;
10303;SDS011;5197;48.152;8.590;2023-04-24T05:01:16;0.80;;;0.80;;
10303;SDS011;5197;48.152;8.590;2023-04-24T05:03:43;1.00;;;1.00;;
10303;SDS011;5197;48.152;8.590;2023-04-24T05:06:11;0.97;;;0.90;;
10303;SDS011;5197;48.152;8.590;2023-04-24T05:08:38;2.37;;;1.30;;
10303;SDS011;5197;48.152;8.590;2023-04-24T05:11:05;6.17;;;1.97;;
10303;SDS011;5197;48.152;8.590;2023-04-24T05:13:32;1.67;;;1.67;;
10303;SDS011;5197;48.152;8.590;2023-04-24T05:16:07;1.27;;;1.23;;
10303;SDS011;5197;48.152;8.590;2023-04-24T05:18:34;2.33;;;1.97;;
10303;SDS011;5197;48.152;8.590;2023-04-24T05:21:01;2.57;;;1.50;;
10303;SDS011;5197;48.152;8.590;2023-04-24T05:23:27;1.60;;;1.50;;
10303;SDS011;5197;48.152;8.590;2023-04-24T05:25:54;3.30;;;1.50;;
10303;SDS011;5197;48.152;8.590;2023-04-24T05:28:21;2.17;;;1.80;;
10303;SDS011;5197;48.152;8.590;2023-04-24T05:30:48;2.10;;;1.70;;
10303;SDS011;5197;48.152;8.590;2023-04-24T05:33:15;1.50;;;1.40;;
10303;SDS011;5197;48.152;8.590;2023-04-24T05:35:41;2.83;;;1.50;;
10303;SDS011;5197;48.152;8.590;2023-04-24T05:38:13;2.23;;;1.60;;
10303;SDS011;5197;48.152;8.590;2023-04-24T05:40:40;2.47;;;1.43;;
10303;SDS011;5197;48.152;8.590;2023-04-24T05:43:07;1.63;;;1.53;;
10303;SDS011;5197;48.152;8.590;2023-04-24T05:45:34;1.90;;;1.30;;
10303;SDS011;5197;48.152;8.590;2023-04-24T05:48:02;1.83;;;1.63;;
10303;SDS011;5197;48.152;8.590;2023-04-24T05:50:29;1.70;;;1.60;;
10303;SDS011;5197;48.152;8.590;2023-04-24T05:52:56;3.53;;;2.10;;
10303;SDS011;5197;48.152;8.590;2023-04-24T05:55:25;1.93;;;1.83;;
10303;SDS011;5197;48.152;8.590;2023-04-24T05:57:52;1.97;;;1.63;;
10303;SDS011;5197;48.152;8.590;2023-04-24T06:00:20;1.43;;;1.43;;
10303;SDS011;5197;48.152;8.590;2023-04-24T06:02:48;1.50;;;1.40;;
10303;SDS011;5197;48.152;8.590;2023-04-24T06:05:15;1.90;;;1.80;;
10303;SDS011;5197;48.152;8.590;2023-04-24T06:07:42;3.20;;;1.60;;
10303;SDS011;5197;48.152;8.590;2023-04-24T06:10:09;1.60;;;1.50;;
10303;SDS011;5197;48.152;8.590;2023-04-24T06:12:36;2.33;;;1.50;;
10303;SDS011;5197;48.152;8.590;2023-04-24T06:15:03;1.60;;;1.50;;
10303;SDS011;5197;48.152;8.590;2023-04-24T06:17:31;1.60;;;1.50;;
10303;SDS011;5197;48.152;8.590;2023-04-24T06:19:58;1.20;;;1.20;;
10303;SDS011;5197;48.152;8.590;2023-04-24T06:22:25;1.53;;;1.43;;
10303;SDS011;5197;48.152;8.590;2023-04-24T06:24:52;1.60;;;1.50;;
10303;SDS011;5197;48.152;8.590;2023-04-24T06:27:18;1.47;;;1.37;;
10303;SDS011;5197;48.152;8.590;2023-04-24T06:29:45;1.50;;;1.40;;
10303;SDS011;5197;48.152;8.590;2023-04-24T06:32:14;2.97;;;1.50;;
10303;SDS011;5197;48.152;8.590;2023-04-24T06:34:41;1.57;;;1.40;;
10303;SDS011;5197;48.152;8.590;2023-04-24T06:37:08;1.40;;;1.30;;
10303;SDS011;5197;48.152;8.590;2023-04-24T06:39:35;2.07;;;1.20;;
10303;SDS011;5197;48.152;8.590;2023-04-24T06:42:02;1.33;;;1.20;;
10303;SDS011;5197;48.152;8.590;2023-04-24T06:44:28;1.90;;;1.23;;
10303;SDS011;5197;48.152;8.590;2023-04-24T06:46:55;1.43;;;1.10;;
10303;SDS011;5197;48.152;8.590;2023-04-24T06:49:22;2.50;;;0.70;;
10303;SDS011;5197;48.152;8.590;2023-04-24T06:51:49;0.70;;;0.70;;
10303;SDS011;5197;48.152;8.590;2023-04-24T06:54:16;1.47;;;0.70;;
10303;SDS011;5197;48.152;8.590;2023-04-24T06:56:42;1.20;;;0.80;;
10303;SDS011;5197;48.152;8.590;2023-04-24T06:59:11;0.63;;;0.63;;
10303;SDS011;5197;48.152;8.590;2023-04-24T07:01:38;1.67;;;0.90;;
10303;SDS011;5197;48.152;8.590;2023-04-24T07:04:05;0.77;;;0.77;;
10303;SDS011;5197;48.152;8.590;2023-04-24T07:06:32;1.50;;;0.83;;
10303;SDS011;5197;48.152;8.590;2023-04-24T07:08:59;1.40;;;1.07;;
10303;SDS011;5197;48.152;8.590;2023-04-24T07:11:27;0.73;;;0.73;;
10303;SDS011;5197;48.152;8.590;2023-04-24T07:13:55;0.70;;;0.70;;
10303;SDS011;5197;48.152;8.590;2023-04-24T07:16:22;1.53;;;1.03;;
10303;SDS011;5197;48.152;8.590;2023-04-24T07:18:49;1.17;;;1.03;;
10303;SDS011;5197;48.152;8.590;2023-04-24T07:21:16;1.27;;;0.90;;
10303;SDS011;5197;48.152;8.590;2023-04-24T07:23:43;1.07;;;1.07;;
10303;SDS011;5197;48.152;8.590;2023-04-24T07:26:09;1.00;;;1.00;;
10303;SDS011;5197;48.152;8.590;2023-04-24T07:28:36;1.47;;;1.13;;
10303;SDS011;5197;48.152;8.590;2023-04-24T07:31:03;2.93;;;1.00;;
10303;SDS011;5197;48.152;8.590;2023-04-24T07:33:30;0.90;;;0.90;;
10303;SDS011;5197;48.152;8.590;2023-04-24T07:35:57;1.70;;;1.33;;
10303;SDS011;5197;48.152;8.590;2023-04-24T07:38:24;1.07;;;1.07;;
10303;SDS011;5197;48.152;8.590;2023-04-24T07:40:52;1.27;;;1.17;;
10303;SDS011;5197;48.152;8.590;2023-04-24T07:43:19;2.60;;;1.30;;
10303;SDS011;5197;48.152;8.590;2023-04-24T07:45:47;1.40;;;1.30;;
10303;SDS011;5197;48.152;8.590;2023-04-24T07:48:14;1.33;;;1.30;;
10303;SDS011;5197;48.152;8.590;2023-04-24T07:50:42;1.20;;;1.10;;
10303;SDS011;5197;48.152;8.590;2023-04-24T07:53:09;1.43;;;1.27;;
10303;SDS011;5197;48.152;8.590;2023-04-24T07:55:36;2.30;;;1.10;;
10303;SDS011;5197;48.152;8.590;2023-04-24T07:58:03;1.20;;;1.20;;
10303;SDS011;5197;48.152;8.590;2023-04-24T08:00:30;1.30;;;1.20;;
10303;SDS011;5197;48.152;8.590;2023-04-24T08:02:57;2.50;;;1.23;;
10303;SDS011;5197;48.152;8.590;2023-04-24T08:05:24;2.80;;;1.40;;
10303;SDS011;5197;48.152;8.590;2023-04-24T08:07:54;2.50;;;1.30;;
10303;SDS011;5197;48.152;8.590;2023-04-24T08:10:22;1.50;;;1.40;;
10303;SDS011;5197;48.152;8.590;2023-04-24T08:12:50;1.17;;;1.17;;
10303;SDS011;5197;48.152;8.590;2023-04-24T08:15:17;1.30;;;1.20;;
10303;SDS011;5197;48.152;8.590;2023-04-24T08:17:44;1.50;;;1.20;;
10303;SDS011;5197;48.152;8.590;2023-04-24T08:20:11;1.00;;;1.00;;
10303;SDS011;5197;48.152;8.590;2023-04-24T08:22:42;1.60;;;1.23;;
10303;SDS011;5197;48.152;8.590;2023-04-24T08:25:09;0.70;;;0.63;;
10303;SDS011;5197;48.152;8.590;2023-04-24T08:27:37;1.33;;;1.23;;
10303;SDS011;5197;48.152;8.590;2023-04-24T08:30:05;1.37;;;1.27;;
10303;SDS011;5197;48.152;8.590;2023-04-24T08:32:33;1.37;;;1.23;;
10303;SDS011;5197;48.152;8.590;2023-04-24T08:34:59;2.20;;;1.20;;
10303;SDS011;5197;48.152;8.590;2023-04-24T08:37:26;2.30;;;1.40;;
10303;SDS011;5197;48.152;8.590;2023-04-24T08:39:53;2.63;;;1.30;;
10303;SDS011;5197;48.152;8.590;2023-04-24T08:42:20;1.30;;;1.30;;
10303;SDS011;5197;48.152;8.590;2023-04-24T08:44:48;2.00;;;1.40;;
10303;SDS011;5197;48.152;8.590;2023-04-24T08:47:15;2.13;;;1.40;;
10303;SDS011;5197;48.152;8.590;2023-04-24T08:49:43;1.57;;;1.47;;
10303;SDS011;5197;48.152;8.590;2023-04-24T08:52:12;1.00;;;1.00;;
10303;SDS011;5197;48.152;8.590;2023-04-24T08:54:39;3.63;;;1.03;;
10303;SDS011;5197;48.152;8.590;2023-04-24T08:57:09;1.57;;;0.63;;
10303;SDS011;5197;48.152;8.590;2023-04-24T08:59:37;1.10;;;1.07;;
10303;SDS011;5197;48.152;8.590;2023-04-24T09:02:04;2.63;;;1.23;;
10303;SDS011;5197;48.152;8.590;2023-04-24T09:04:32;2.47;;;1.50;;
10303;SDS011;5197;48.152;8.590;2023-04-24T09:07:01;1.10;;;1.10;;
10303;SDS011;5197;48.152;8.590;2023-04-24T09:09:30;1.67;;;1.17;;
10303;SDS011;5197;48.152;8.590;2023-04-24T09:11:58;1.00;;;1.00;;
10303;SDS011;5197;48.152;8.590;2023-04-24T09:14:26;1.70;;;1.40;;
10303;SDS011;5197;48.152;8.590;2023-04-24T09:16:54;1.50;;;1.40;;
10303;SDS011;5197;48.152;8.590;2023-04-24T09:19:20;1.83;;;1.50;;
10303;SDS011;5197;48.152;8.590;2023-04-24T09:21:48;2.33;;;1.43;;
10303;SDS011;5197;48.152;8.590;2023-04-24T09:24:17;1.77;;;1.67;;
10303;SDS011;5197;48.152;8.590;2023-04-24T09:26:46;1.93;;;1.60;;
10303;SDS011;5197;48.152;8.590;2023-04-24T09:29:16;3.97;;;1.40;;
10303;SDS011;5197;48.152;8.590;2023-04-24T09:31:44;1.80;;;1.70;;
10303;SDS011;5197;48.152;8.590;2023-04-24T09:34:12;2.30;;;1.80;;
10303;SDS011;5197;48.152;8.590;2023-04-24T09:36:40;2.03;;;1.33;;
10303;SDS011;5197;48.152;8.590;2023-04-24T09:39:09;1.70;;;1.60;;
10303;SDS011;5197;48.152;8.590;2023-04-24T09:41:53;2.17;;;1.10;;
10303;SDS011;5197;48.152;8.590;2023-04-24T09:44:26;2.13;;;1.53;;
10303;SDS011;5197;48.152;8.590;2023-04-24T09:49:25;2.60;;;1.70;;
10303;SDS011;5197;48.152;8.590;2023-04-24T09:52:03;2.03;;;1.80;;
10303;SDS011;5197;48.152;8.590;2023-04-24T09:54:30;1.63;;;1.53;;
10303;SDS011;5197;48.152;8.590;2023-04-24T09:56:57;2.67;;;1.50;;
10303;SDS011;5197;48.152;8.590;2023-04-24T09:59:26;0.80;;;0.80;;
10303;SDS011;5197;48.152;8.590;2023-04-24T10:01:53;1.10;;;1.00;;
10303;SDS011;5197;48.152;8.590;2023-04-24T10:04:24;1.17;;;1.17;;
10303;SDS011;5197;48.152;8.590;2023-04-24T10:06:55;2.00;;;1.80;;
10303;SDS011;5197;48.152;8.590;2023-04-24T10:09:24;2.23;;;1.37;;
10303;SDS011;5197;48.152;8.590;2023-04-24T10:11:53;1.20;;;1.20;;
10303;SDS011;5197;48.152;8.590;2023-04-24T10:14:24;0.67;;;0.67;;
10303;SDS011;5197;48.152;8.590;2023-04-24T10:16:57;1.00;;;0.90;;
10303;SDS011;5197;48.152;8.590;2023-04-24T10:19:25;1.70;;;1.07;;
10303;SDS011;5197;48.152;8.590;2023-04-24T10:21:52;2.30;;;1.27;;
10303;SDS011;5197;48.152;8.590;2023-04-24T10:24:21;2.97;;;1.80;;
10303;SDS011;5197;48.152;8.590;2023-04-24T10:26:48;1.50;;;1.40;;
10303;SDS011;5197;48.152;8.590;2023-04-24T10:29:17;2.63;;;1.60;;
10303;SDS011;5197;48.152;8.590;2023-04-24T10:31:45;1.87;;;1.30;;
10303;SDS011;5197;48.152;8.590;2023-04-24T10:34:14;1.97;;;1.50;;
10303;SDS011;5197;48.152;8.590;2023-04-24T10:36:44;1.53;;;1.43;;
10303;SDS011;5197;48.152;8.590;2023-04-24T10:39:15;1.67;;;1.57;;
10303;SDS011;5197;48.152;8.590;2023-04-24T10:41:43;3.13;;;1.30;;
10303;SDS011;5197;48.152;8.590;2023-04-24T10:44:12;2.60;;;1.30;;
10303;SDS011;5197;48.152;8.590;2023-04-24T10:46:44;1.90;;;1.60;;
10303;SDS011;5197;48.152;8.590;2023-04-24T10:49:16;1.37;;;1.27;;
10303;SDS011;5197;48.152;8.590;2023-04-24T10:54:24;1.17;;;0.97;;
10303;SDS011;5197;48.152;8.590;2023-04-24T10:59:49;2.53;;;1.47;;
10303;SDS011;5197;48.152;8.590;2023-04-24T11:02:18;1.90;;;1.30;;
10303;SDS011;5197;48.152;8.590;2023-04-24T11:05:05;1.57;;;1.47;;
10303;SDS011;5197;48.152;8.590;2023-04-24T11:16:20;0.80;;;0.80;;
10303;SDS011;5197;48.152;8.590;2023-04-24T11:18:52;1.20;;;1.10;;
10303;SDS011;5197;48.152;8.590;2023-04-24T11:21:40;1.70;;;0.73;;
10303;SDS011;5197;48.152;8.590;2023-04-24T11:27:14;0.93;;;0.90;;
10303;SDS011;5197;48.152;8.590;2023-04-24T11:29:44;0.43;;;0.43;;
10303;SDS011;5197;48.152;8.590;2023-04-24T11:35:04;0.60;;;0.50;;
10303;SDS011;5197;48.152;8.590;2023-04-24T11:37:36;0.57;;;0.50;;
10303;SDS011;5197;48.152;8.590;2023-04-24T11:40:05;0.73;;;0.47;;
10303;SDS011;5197;48.152;8.590;2023-04-24T11:42:37;0.83;;;0.40;;
10303;SDS011;5197;48.152;8.590;2023-04-24T11:45:09;0.83;;;0.50;;
10303;SDS011;5197;48.152;8.590;2023-04-24T11:47:37;0.80;;;0.40;;
10303;SDS011;5197;48.152;8.590;2023-04-24T11:50:04;0.40;;;0.40;;
10303;SDS011;5197;48.152;8.590;2023-04-24T11:52:36;2.03;;;0.40;;
10303;SDS011;5197;48.152;8.590;2023-04-24T11:55:06;1.50;;;0.50;;
10303;SDS011;5197;48.152;8.590;2023-04-24T11:57:34;0.47;;;0.47;;
10303;SDS011;5197;48.152;8.590;2023-04-24T12:00:03;0.77;;;0.47;;
10303;SDS011;5197;48.152;8.590;2023-04-24T12:02:35;0.40;;;0.40;;
10303;SDS011;5197;48.152;8.590;2023-04-24T12:05:05;0.47;;;0.47;;
10303;SDS011;5197;48.152;8.590;2023-04-24T12:07:39;1.43;;;0.60;;
10303;SDS011;5197;48.152;8.590;2023-04-24T12:10:09;1.03;;;0.53;;
10303;SDS011;5197;48.152;8.590;2023-04-24T12:12:36;0.50;;;0.50;;
10303;SDS011;5197;48.152;8.590;2023-04-24T12:15:06;0.40;;;0.40;;
10303;SDS011;5197;48.152;8.590;2023-04-24T12:17:35;0.60;;;0.60;;
10303;SDS011;5197;48.152;8.590;2023-04-24T12:20:06;1.07;;;0.70;;
10303;SDS011;5197;48.152;8.590;2023-04-24T12:22:47;0.70;;;0.70;;
10303;SDS011;5197;48.152;8.590;2023-04-24T12:25:21;0.87;;;0.60;;
10303;SDS011;5197;48.152;8.590;2023-04-24T12:27:53;0.67;;;0.60;;
10303;SDS011;5197;48.152;8.590;2023-04-24T12:30:29;2.00;;;0.60;;
10303;SDS011;5197;48.152;8.590;2023-04-24T12:32:58;0.80;;;0.80;;
10303;SDS011;5197;48.152;8.590;2023-04-24T12:35:28;1.43;;;0.60;;
10303;SDS011;5197;48.152;8.590;2023-04-24T12:38:10;2.53;;;0.53;;
10303;SDS011;5197;48.152;8.590;2023-04-24T12:40:39;0.83;;;0.83;;
10303;SDS011;5197;48.152;8.590;2023-04-24T12:45:41;1.73;;;0.67;;
10303;SDS011;5197;48.152;8.590;2023-04-24T12:48:08;0.93;;;0.80;;
10303;SDS011;5197;48.152;8.590;2023-04-24T12:50:35;0.57;;;0.57;;
10303;SDS011;5197;48.152;8.590;2023-04-24T12:53:02;0.80;;;0.80;;
10303;SDS011;5197;48.152;8.590;2023-04-24T12:55:29;2.53;;;0.80;;
10303;SDS011;5197;48.152;8.590;2023-04-24T12:57:56;4.33;;;1.00;;
10303;SDS011;5197;48.152;8.590;2023-04-24T13:00:24;1.00;;;0.80;;
10303;SDS011;5197;48.152;8.590;2023-04-24T13:02:51;0.93;;;0.93;;
10303;SDS011;5197;48.152;8.590;2023-04-24T13:05:24;0.80;;;0.80;;
10303;SDS011;5197;48.152;8.590;2023-04-24T13:07:52;3.10;;;1.20;;
10303;SDS011;5197;48.152;8.590;2023-04-24T13:10:18;0.83;;;0.80;;
10303;SDS011;5197;48.152;8.590;2023-04-24T13:12:45;1.07;;;1.00;;
10303;SDS011;5197;48.152;8.590;2023-04-24T13:15:12;0.90;;;0.90;;
10303;SDS011;5197;48.152;8.590;2023-04-24T13:17:39;0.80;;;0.80;;
10303;SDS011;5197;48.152;8.590;2023-04-24T13:20:06;0.97;;;0.97;;
10303;SDS011;5197;48.152;8.590;2023-04-24T13:22:33;0.63;;;0.63;;
10303;SDS011;5197;48.152;8.590;2023-04-24T13:25:00;2.20;;;0.90;;
10303;SDS011;5197;48.152;8.590;2023-04-24T13:27:27;0.70;;;0.70;;
10303;SDS011;5197;48.152;8.590;2023-04-24T13:29:54;1.00;;;0.70;;
10303;SDS011;5197;48.152;8.590;2023-04-24T13:32:21;1.47;;;1.00;;
10303;SDS011;5197;48.152;8.590;2023-04-24T13:34:48;0.70;;;0.70;;
10303;SDS011;5197;48.152;8.590;2023-04-24T13:37:15;1.33;;;0.90;;
10303;SDS011;5197;48.152;8.590;2023-04-24T13:39:42;1.10;;;1.00;;
10303;SDS011;5197;48.152;8.590;2023-04-24T13:42:09;1.27;;;0.90;;
10303;SDS011;5197;48.152;8.590;2023-04-24T13:44:36;2.37;;;0.80;;
10303;SDS011;5197;48.152;8.590;2023-04-24T13:47:02;2.70;;;1.40;;
10303;SDS011;5197;48.152;8.590;2023-04-24T13:49:29;1.70;;;1.00;;
10303;SDS011;5197;48.152;8.590;2023-04-24T13:51:56;2.13;;;0.83;;
10303;SDS011;5197;48.152;8.590;2023-04-24T13:54:23;2.33;;;1.00;;
10303;SDS011;5197;48.152;8.590;2023-04-24T13:56:52;1.10;;;1.00;;
10303;SDS011;5197;48.152;8.590;2023-04-24T13:59:19;1.50;;;1.20;;
10303;SDS011;5197;48.152;8.590;2023-04-24T14:01:47;1.93;;;1.20;;
10303;SDS011;5197;48.152;8.590;2023-04-24T14:04:14;1.13;;;0.90;;
10303;SDS011;5197;48.152;8.590;2023-04-24T14:06:42;3.17;;;1.20;;
10303;SDS011;5197;48.152;8.590;2023-04-24T14:09:10;1.07;;;1.00;;
10303;SDS011;5197;48.152;8.590;2023-04-24T14:11:37;1.17;;;0.87;;
10303;SDS011;5197;48.152;8.590;2023-04-24T14:14:03;1.10;;;1.00;;
10303;SDS011;5197;48.152;8.590;2023-04-24T14:16:31;2.73;;;1.30;;
10303;SDS011;5197;48.152;8.590;2023-04-24T14:18:58;2.23;;;1.00;;
10303;SDS011;5197;48.152;8.590;2023-04-24T14:21:25;1.60;;;1.07;;
10303;SDS011;5197;48.152;8.590;2023-04-24T14:23:56;0.90;;;0.90;;
10303;SDS011;5197;48.152;8.590;2023-04-24T14:26:23;1.67;;;1.10;;
10303;SDS011;5197;48.152;8.590;2023-04-24T14:28:51;1.23;;;0.80;;
10303;SDS011;5197;48.152;8.590;2023-04-24T14:31:32;1.17;;;1.00;;
10303;SDS011;5197;48.152;8.590;2023-04-24T14:33:59;1.10;;;0.80;;
10303;SDS011;5197;48.152;8.590;2023-04-24T14:36:26;1.13;;;1.13;;
10303;SDS011;5197;48.152;8.590;2023-04-24T14:38:53;0.60;;;0.60;;
10303;SDS011;5197;48.152;8.590;2023-04-24T14:41:20;2.67;;;0.80;;
10303;SDS011;5197;48.152;8.590;2023-04-24T14:43:47;2.23;;;1.27;;
10303;SDS011;5197;48.152;8.590;2023-04-24T14:46:14;0.50;;;0.50;;
10303;SDS011;5197;48.152;8.590;2023-04-24T14:48:42;1.40;;;1.10;;
10303;SDS011;5197;48.152;8.590;2023-04-24T14:51:09;2.83;;;1.00;;
10303;SDS011;5197;48.152;8.590;2023-04-24T14:53:36;0.73;;;0.73;;
10303;SDS011;5197;48.152;8.590;2023-04-24T14:56:03;1.10;;;1.00;;
10303;SDS011;5197;48.152;8.590;2023-04-24T14:58:30;1.30;;;0.77;;
10303;SDS011;5197;48.152;8.590;2023-04-24T15:00:56;1.83;;;0.80;;
10303;SDS011;5197;48.152;8.590;2023-04-24T15:03:24;3.53;;;1.17;;
10303;SDS011;5197;48.152;8.590;2023-04-24T15:05:53;0.80;;;0.80;;
10303;SDS011;5197;48.152;8.590;2023-04-24T15:08:20;0.50;;;0.50;;
10303;SDS011;5197;48.152;8.590;2023-04-24T15:10:46;2.37;;;1.00;;
10303;SDS011;5197;48.152;8.590;2023-04-24T15:13:13;1.77;;;0.90;;
10303;SDS011;5197;48.152;8.590;2023-04-24T15:15:40;1.10;;;1.00;;
10303;SDS011;5197;48.152;8.590;2023-04-24T15:18:08;1.40;;;1.30;;
10303;SDS011;5197;48.152;8.590;2023-04-24T15:20:37;2.60;;;1.13;;
10303;SDS011;5197;48.152;8.590;2023-04-24T15:23:08;2.20;;;1.20;;
10303;SDS011;5197;48.152;8.590;2023-04-24T15:25:36;1.23;;;1.13;;
10303;SDS011;5197;48.152;8.590;2023-04-24T15:28:06;2.67;;;1.53;;
10303;SDS011;5197;48.152;8.590;2023-04-24T15:30:33;1.80;;;1.10;;